createdAt,value
2023-05-03T00:00:08.053Z,102177.75
2023-05-03T00:00:31.062Z,102185.75
2023-05-03T00:00:53.638Z,102181.31
2023-05-03T00:01:15.702Z,102178.66
2023-05-03T00:01:37.452Z,102180.41
2023-05-03T00:01:59.181Z,102183.03
2023-05-03T00:02:21.955Z,102178.56
2023-05-03T00:02:44.933Z,102181.25
2023-05-03T00:03:07.116Z,102188.28
2023-05-03T00:03:29.021Z,102192.75
2023-05-03T00:03:52.493Z,102174.97
2023-05-03T00:04:16.974Z,102187.44
2023-05-03T00:04:38.720Z,102186.56
2023-05-03T00:05:00.905Z,102182.97
2023-05-03T00:05:22.870Z,102179.41
2023-05-03T00:05:45.605Z,102183.84
2023-05-03T00:06:11.476Z,102185.63
2023-05-03T00:06:33.310Z,102184.78
2023-05-03T00:06:55.639Z,102178.56
2023-05-03T00:07:18.307Z,102175.09
2023-05-03T00:07:42.195Z,102177.75
2023-05-03T00:08:04.568Z,102184.84
2023-05-03T00:08:27.143Z,102174.28
2023-05-03T00:08:48.910Z,102182.19
2023-05-03T00:09:10.814Z,102181.28
2023-05-03T00:09:33.721Z,102176.94
2023-05-03T00:09:56.310Z,102175.19
2023-05-03T00:10:18.202Z,102176.88
2023-05-03T00:10:39.870Z,102182.22
2023-05-03T00:11:01.570Z,102181.31
2023-05-03T00:11:24.240Z,102182.19
2023-05-03T00:11:45.943Z,102183.09
2023-05-03T00:12:07.573Z,102177.75
2023-05-03T00:12:29.174Z,102181.31
2023-05-03T00:12:51.912Z,102183.97
2023-05-03T00:13:13.582Z,102177.75
2023-05-03T00:13:35.195Z,102176.88
2023-05-03T00:13:56.780Z,102172.44
2023-05-03T00:14:19.334Z,102173.31
2023-05-03T00:14:40.988Z,102177.75
2023-05-03T00:15:47.269Z,102176.03
2023-05-03T00:16:08.874Z,102169.78
2023-05-03T00:16:30.716Z,102172.44
2023-05-03T00:16:54.065Z,102178.66
2023-05-03T00:17:16.679Z,102169.72
2023-05-03T00:17:38.438Z,102163.63
2023-05-03T00:18:00.234Z,102172.38
2023-05-03T00:18:22.594Z,102176.84
2023-05-03T00:18:46.381Z,102167.94
2023-05-03T00:19:14.952Z,102164.31
2023-05-03T00:19:42.456Z,102171.41
2023-05-03T00:20:05.409Z,102168.75
2023-05-03T00:20:28.053Z,102168.81
2023-05-03T00:20:50.287Z,102162.66
2023-05-03T00:21:12.395Z,102171.47
2023-05-03T00:21:34.065Z,102173.25
2023-05-03T00:21:55.802Z,102170.59
2023-05-03T00:22:18.462Z,102166.22
2023-05-03T00:22:40.129Z,102167.97
2023-05-03T00:23:02.050Z,102166.22
2023-05-03T00:23:24.810Z,102164.47
2023-05-03T00:23:46.520Z,102171.56
2023-05-03T00:24:08.241Z,102167.09
2023-05-03T00:24:29.914Z,102168.88
2023-05-03T00:24:52.522Z,102166.19
2023-05-03T00:25:15.248Z,102167.03
2023-05-03T00:25:36.958Z,102157.28
2023-05-03T00:25:59.304Z,102160.84
2023-05-03T00:26:22.449Z,102163.56
2023-05-03T00:26:44.651Z,102162.66
2023-05-03T00:27:06.663Z,102159.13
2023-05-03T00:27:28.685Z,102158.25
2023-05-03T00:27:51.314Z,102155.59
2023-05-03T00:28:12.991Z,102157.34
2023-05-03T00:28:34.568Z,102160.88
2023-05-03T00:28:56.224Z,102157.34
2023-05-03T00:29:21.103Z,102159.94
2023-05-03T00:29:43.701Z,102162.63
2023-05-03T00:30:06.579Z,102155.56
2023-05-03T00:30:28.164Z,102155.63
2023-05-03T00:30:51.481Z,102163.63
2023-05-03T00:31:14.117Z,102153.94
2023-05-03T00:31:36.044Z,102159.28
2023-05-03T00:31:57.818Z,102166.44
2023-05-03T00:32:20.694Z,102156.66
2023-05-03T00:32:42.421Z,102157.56
2023-05-03T00:33:05.234Z,102153.94
2023-05-03T00:33:26.925Z,102161.94
2023-05-03T00:33:48.536Z,102153.06
2023-05-03T00:34:10.613Z,102158.38
2023-05-03T00:34:33.228Z,102154.75
2023-05-03T00:34:56.056Z,102153.94
2023-05-03T00:35:18.103Z,102164.50
2023-05-03T00:35:39.695Z,102152.09
2023-05-03T00:36:08.241Z,102155.72
2023-05-03T00:36:30.968Z,102154.84
2023-05-03T00:36:52.630Z,102167.22
2023-05-03T00:37:14.226Z,102158.31
2023-05-03T00:37:37.829Z,102165.41
2023-05-03T00:37:59.688Z,102159.22
2023-05-03T00:38:21.777Z,102158.31
2023-05-03T00:38:43.441Z,102157.34
2023-05-03T00:39:06.301Z,102163.56
2023-05-03T00:39:29.808Z,102168.88
2023-05-03T00:39:52.659Z,102161.84
2023-05-03T00:40:18.491Z,102158.31
2023-05-03T00:40:40.355Z,102158.31
2023-05-03T00:41:03.112Z,102168.94
2023-05-03T00:41:24.728Z,102160.91
2023-05-03T00:41:47.344Z,102164.50
2023-05-03T00:42:09.009Z,102161.84
2023-05-03T00:42:30.648Z,102160.91
2023-05-03T00:42:52.360Z,102164.44
2023-05-03T00:43:14.890Z,102164.44
2023-05-03T00:43:37.678Z,102162.69
2023-05-03T00:43:59.325Z,102166.28
2023-05-03T00:44:20.915Z,102167.16
2023-05-03T00:44:43.690Z,102154.78
2023-05-03T00:45:06.733Z,102158.31
2023-05-03T00:45:30.602Z,102167.19
2023-05-03T00:45:59.385Z,102166.22
2023-05-03T00:46:31.710Z,102162.72
2023-05-03T00:46:54.511Z,102157.56
2023-05-03T00:47:16.749Z,102168.09
2023-05-03T00:47:38.716Z,102167.22
2023-05-03T00:48:01.064Z,102168.97
2023-05-03T00:48:23.923Z,102170.72
2023-05-03T00:48:46.557Z,102170.81
2023-05-03T00:49:08.228Z,102164.56
2023-05-03T00:49:29.949Z,102168.16
2023-05-03T00:49:52.647Z,102173.50
2023-05-03T00:50:14.363Z,102163.69
2023-05-03T00:50:37.230Z,102177.84
2023-05-03T00:51:00.719Z,102169.03
2023-05-03T00:51:24.360Z,102176.19
2023-05-03T00:51:46.010Z,102175.25
2023-05-03T00:52:09.019Z,102172.63
2023-05-03T00:52:31.017Z,102177.91
2023-05-03T00:52:52.792Z,102170.88
2023-05-03T00:53:15.794Z,102177.13
2023-05-03T00:53:37.639Z,102177.16
2023-05-03T00:53:59.528Z,102178.91
2023-05-03T00:54:21.762Z,102178.97
2023-05-03T00:54:44.475Z,102179.03
2023-05-03T00:55:08.648Z,102176.44
2023-05-03T00:55:31.445Z,102172.84
2023-05-03T00:55:54.108Z,102174.59
2023-05-03T00:56:20.804Z,102178.16
2023-05-03T00:56:51.143Z,102171.97
2023-05-03T00:57:13.865Z,102174.63
2023-05-03T00:57:36.546Z,102173.72
2023-05-03T00:57:58.131Z,102176.38
2023-05-03T00:58:20.326Z,102182.53
2023-05-03T00:58:41.998Z,102169.28
2023-05-03T00:59:04.697Z,102176.38
2023-05-03T00:59:27.393Z,102173.66
2023-05-03T00:59:49.723Z,102175.44
2023-05-03T01:00:13.453Z,102175.44
2023-05-03T01:00:37.018Z,102171.00
2023-05-03T01:01:00.773Z,102170.94
2023-05-03T01:01:22.669Z,102175.41
2023-05-03T01:01:47.965Z,102175.41
2023-05-03T01:02:10.664Z,102177.16
2023-05-03T01:02:32.514Z,102164.78
2023-05-03T01:02:54.524Z,102166.63
2023-05-03T01:03:16.387Z,102167.50
2023-05-03T01:03:41.232Z,102174.59
2023-05-03T01:04:07.407Z,102174.66
2023-05-03T01:04:30.048Z,102173.78
2023-05-03T01:04:53.665Z,102182.66
2023-05-03T01:05:15.853Z,102177.28
2023-05-03T01:05:49.603Z,102174.63
2023-05-03T01:06:18.034Z,102175.50
2023-05-03T01:06:48.261Z,102175.50
2023-05-03T01:07:23.620Z,102164.88
2023-05-03T01:07:53.570Z,102173.66
2023-05-03T01:08:23.997Z,102164.84
2023-05-03T01:08:54.806Z,102170.19
2023-05-03T01:09:24.335Z,102164.00
2023-05-03T01:09:53.561Z,102166.69
2023-05-03T01:10:23.252Z,102169.34
2023-05-03T01:10:53.124Z,102166.75
2023-05-03T01:11:22.964Z,102170.31
2023-05-03T01:11:52.251Z,102164.16
2023-05-03T01:12:25.052Z,102158.81
2023-05-03T01:12:56.550Z,102165.88
2023-05-03T01:13:27.808Z,102164.16
2023-05-03T01:13:58.267Z,102164.25
2023-05-03T01:14:28.584Z,102151.03
2023-05-03T01:14:59.875Z,102167.75
2023-05-03T01:15:33.733Z,102163.38
2023-05-03T01:16:06.477Z,102163.38
2023-05-03T01:16:35.088Z,102166.88
2023-05-03T01:17:02.971Z,102136.88
2023-05-03T01:17:29.063Z,102155.34
2023-05-03T01:17:54.431Z,102160.66
2023-05-03T01:18:20.314Z,102166.00
2023-05-03T01:18:48.942Z,102159.84
2023-05-03T01:19:20.080Z,102160.72
2023-05-03T01:19:45.331Z,102160.72
2023-05-03T01:20:11.032Z,102166.94
2023-05-03T01:20:35.858Z,102166.03
2023-05-03T01:20:59.819Z,102157.19
2023-05-03T01:21:22.698Z,102163.38
2023-05-03T01:21:51.476Z,102160.72
2023-05-03T01:22:22.740Z,102166.94
2023-05-03T01:22:56.234Z,102165.13
2023-05-03T01:23:31.180Z,102168.69
2023-05-03T01:24:00.715Z,102157.19
2023-05-03T01:24:24.498Z,102167.81
2023-05-03T01:24:51.146Z,102161.66
2023-05-03T01:25:15.749Z,102161.66
2023-05-03T01:25:38.460Z,102153.66
2023-05-03T01:26:00.182Z,102167.00
2023-05-03T01:26:23.341Z,102163.47
2023-05-03T01:26:45.058Z,102165.28
2023-05-03T01:27:09.301Z,102165.28
2023-05-03T01:27:31.299Z,102165.31
2023-05-03T01:27:53.000Z,102163.53
2023-05-03T01:28:14.656Z,102166.13
2023-05-03T01:28:37.863Z,102164.41
2023-05-03T01:29:00.269Z,102162.66
2023-05-03T01:29:21.982Z,102156.44
2023-05-03T01:29:44.350Z,102155.59
2023-05-03T01:30:09.157Z,102166.25
2023-05-03T01:30:32.992Z,102158.25
2023-05-03T01:30:56.889Z,102160.91
2023-05-03T01:31:23.787Z,102158.31
2023-05-03T01:31:53.806Z,102160.91
2023-05-03T01:32:22.491Z,102156.47
2023-05-03T01:32:55.724Z,102160.03
2023-05-03T01:33:27.342Z,102163.56
2023-05-03T01:34:02.667Z,102163.63
2023-05-03T01:34:33.548Z,102152.13
2023-05-03T01:35:06.174Z,102168.00
2023-05-03T01:35:37.146Z,102159.16
2023-05-03T01:36:05.070Z,102157.38
2023-05-03T01:36:32.514Z,102161.75
2023-05-03T01:36:58.313Z,102160.88
2023-05-03T01:37:20.914Z,102160.94
2023-05-03T01:37:43.521Z,102161.81
2023-05-03T01:38:05.264Z,102158.25
2023-05-03T01:38:29.883Z,102164.41
2023-05-03T01:38:51.557Z,102162.63
2023-05-03T01:39:18.503Z,102159.09
2023-05-03T01:39:46.821Z,102160.88
2023-05-03T01:40:10.791Z,102167.00
2023-05-03T01:40:40.917Z,102165.28
2023-05-03T01:41:09.240Z,102160.81
2023-05-03T01:41:33.463Z,102166.13
2023-05-03T01:41:56.677Z,102168.78
2023-05-03T01:42:20.509Z,102158.22
2023-05-03T01:42:42.535Z,102153.84
2023-05-03T01:43:05.916Z,102157.34
2023-05-03T01:43:31.353Z,102158.22
2023-05-03T01:43:54.924Z,102151.94
2023-05-03T01:44:17.157Z,102160.81
2023-05-03T01:44:41.142Z,102159.91
2023-05-03T01:45:04.820Z,102159.03
2023-05-03T01:45:26.955Z,102152.84
2023-05-03T01:45:50.535Z,102159.03
2023-05-03T01:46:14.101Z,102164.34
2023-05-03T01:46:43.001Z,102159.03
2023-05-03T01:47:07.278Z,102159.03
2023-05-03T01:47:28.931Z,102164.41
2023-05-03T01:47:51.633Z,102164.41
2023-05-03T01:48:16.048Z,102159.16
2023-05-03T01:48:37.690Z,102160.03
2023-05-03T01:48:59.270Z,102151.22
2023-05-03T01:49:21.005Z,102160.94
2023-05-03T01:49:44.183Z,102156.50
2023-05-03T01:50:08.141Z,102153.81
2023-05-03T01:50:29.726Z,102152.94
2023-05-03T01:50:51.435Z,102160.91
2023-05-03T01:51:13.088Z,102154.66
2023-05-03T01:51:35.770Z,102163.53
2023-05-03T01:51:57.396Z,102159.97
2023-05-03T01:52:18.991Z,102164.41
2023-05-03T01:52:40.936Z,102160.91
2023-05-03T01:53:02.625Z,102146.84
2023-05-03T01:53:25.539Z,102163.69
2023-05-03T01:53:47.252Z,102166.34
2023-05-03T01:54:08.992Z,102164.63
2023-05-03T01:54:30.800Z,102165.41
2023-05-03T01:54:53.430Z,102153.94
2023-05-03T01:55:15.275Z,102163.69
2023-05-03T01:55:38.217Z,102154.88
2023-05-03T01:55:59.861Z,102166.34
2023-05-03T01:56:22.791Z,102167.28
2023-05-03T01:56:44.596Z,102173.47
2023-05-03T01:57:06.290Z,102168.16
2023-05-03T01:57:28.032Z,102171.66
2023-05-03T01:57:50.723Z,102170.84
2023-05-03T01:58:13.378Z,102172.66
2023-05-03T01:58:35.036Z,102174.38
2023-05-03T01:58:56.682Z,102170.84
2023-05-03T01:59:19.339Z,102176.16
2023-05-03T01:59:40.966Z,102152.38
2023-05-03T02:00:02.754Z,102172.66
2023-05-03T02:00:34.358Z,102174.50
2023-05-03T02:00:57.554Z,102170.09
2023-05-03T02:01:19.267Z,102174.50
2023-05-03T02:01:41.103Z,102170.97
2023-05-03T02:02:02.797Z,102176.34
2023-05-03T02:02:26.046Z,102178.06
2023-05-03T02:02:47.796Z,102171.91
2023-05-03T02:03:09.536Z,102172.81
2023-05-03T02:03:31.142Z,102173.69
2023-05-03T02:03:54.025Z,102178.06
2023-05-03T02:04:15.756Z,102179.84
2023-05-03T02:04:37.999Z,102181.56
2023-05-03T02:04:59.765Z,102178.91
2023-05-03T02:05:22.494Z,102180.66
2023-05-03T02:05:44.062Z,102185.09
2023-05-03T02:06:05.901Z,102174.47
2023-05-03T02:06:27.715Z,102173.59
2023-05-03T02:06:52.683Z,102182.44
2023-05-03T02:07:14.338Z,102182.50
2023-05-03T02:07:35.930Z,102178.94
2023-05-03T02:07:57.698Z,102184.31
2023-05-03T02:08:19.329Z,102186.06
2023-05-03T02:08:41.894Z,102179.03
2023-05-03T02:09:04.064Z,102186.13
2023-05-03T02:09:25.773Z,102182.59
2023-05-03T02:09:47.484Z,102182.59
2023-05-03T02:10:14.472Z,102178.16
2023-05-03T02:10:37.978Z,102186.13
2023-05-03T02:10:59.585Z,102177.28
2023-05-03T02:11:21.488Z,102178.16
2023-05-03T02:11:45.153Z,102183.47
2023-05-03T02:12:07.966Z,102177.22
2023-05-03T02:12:29.708Z,102175.50
2023-05-03T02:12:51.325Z,102183.47
2023-05-03T02:13:14.954Z,102179.03
2023-05-03T02:13:38.348Z,102179.09
2023-05-03T02:13:59.970Z,102186.13
2023-05-03T02:14:21.858Z,102174.66
2023-05-03T02:14:44.402Z,102179.03
2023-05-03T02:15:07.253Z,102182.59
2023-05-03T02:15:29.803Z,102180.81
2023-05-03T02:15:52.742Z,102185.19
2023-05-03T02:16:14.419Z,102178.16
2023-05-03T02:16:36.395Z,102178.16
2023-05-03T02:16:58.110Z,102182.59
2023-05-03T02:17:20.742Z,102184.34
2023-05-03T02:17:45.411Z,102183.47
2023-05-03T02:18:08.598Z,102186.16
2023-05-03T02:18:31.334Z,102173.84
2023-05-03T02:18:55.703Z,102184.41
2023-05-03T02:19:17.310Z,102184.41
2023-05-03T02:19:39.008Z,102192.38
2023-05-03T02:20:02.030Z,102188.88
2023-05-03T02:20:24.766Z,102192.38
2023-05-03T02:20:46.907Z,102187.97
2023-05-03T02:21:08.912Z,102197.78
2023-05-03T02:21:31.495Z,102202.19
2023-05-03T02:21:53.094Z,102196.88
2023-05-03T02:22:14.677Z,102190.72
2023-05-03T02:22:36.674Z,102197.78
2023-05-03T02:22:58.774Z,102199.53
2023-05-03T02:23:21.124Z,102194.22
2023-05-03T02:23:43.702Z,102200.44
2023-05-03T02:24:06.141Z,102176.59
2023-05-03T02:24:29.524Z,102193.34
2023-05-03T02:24:51.143Z,102193.31
2023-05-03T02:25:12.989Z,102184.44
2023-05-03T02:25:35.736Z,102177.41
2023-05-03T02:25:59.177Z,102188.88
2023-05-03T02:26:20.977Z,102187.91
2023-05-03T02:26:42.582Z,102192.34
2023-05-03T02:27:05.314Z,102196.75
2023-05-03T02:27:27.905Z,102202.06
2023-05-03T02:27:49.514Z,102200.34
2023-05-03T02:28:11.230Z,102201.22
2023-05-03T02:28:32.998Z,102202.97
2023-05-03T02:28:56.769Z,102201.19
2023-05-03T02:29:18.620Z,102203.88
2023-05-03T02:29:40.741Z,102210.09
2023-05-03T02:30:04.376Z,102206.50
2023-05-03T02:30:33.893Z,102205.66
2023-05-03T02:30:55.646Z,102195.06
2023-05-03T02:31:18.660Z,102205.63
2023-05-03T02:31:40.355Z,102207.41
2023-05-03T02:32:05.366Z,102203.84
2023-05-03T02:32:27.410Z,102206.50
2023-05-03T02:32:49.118Z,102202.91
2023-05-03T02:33:13.106Z,102209.16
2023-05-03T02:33:35.881Z,102208.28
2023-05-03T02:33:57.595Z,102218.00
2023-05-03T02:34:19.254Z,102202.06
2023-05-03T02:34:41.486Z,102207.38
2023-05-03T02:35:07.349Z,102207.38
2023-05-03T02:35:29.647Z,102215.31
2023-05-03T02:35:51.557Z,102205.56
2023-05-03T02:36:13.258Z,102215.34
2023-05-03T02:36:36.124Z,102213.53
2023-05-03T02:36:57.753Z,102204.72
2023-05-03T02:37:19.537Z,102208.28
2023-05-03T02:37:41.538Z,102209.19
2023-05-03T02:38:07.507Z,102209.19
2023-05-03T02:38:30.607Z,102212.75
2023-05-03T02:38:52.221Z,102216.28
2023-05-03T02:39:13.949Z,102204.84
2023-05-03T02:39:35.929Z,102211.91
2023-05-03T02:39:59.562Z,102212.81
2023-05-03T02:40:21.753Z,102212.88
2023-05-03T02:40:43.608Z,102209.28
2023-05-03T02:41:06.764Z,102211.09
2023-05-03T02:41:29.619Z,102210.22
2023-05-03T02:41:51.981Z,102216.38
2023-05-03T02:42:13.752Z,102205.75
2023-05-03T02:42:35.449Z,102214.59
2023-05-03T02:42:58.024Z,102211.06
2023-05-03T02:43:23.238Z,102207.47
2023-05-03T02:43:45.497Z,102221.63
2023-05-03T02:44:07.951Z,102201.34
2023-05-03T02:44:31.270Z,102213.72
2023-05-03T02:44:55.035Z,102216.38
2023-05-03T02:45:18.496Z,102203.94
2023-05-03T02:45:40.201Z,102218.09
2023-05-03T02:46:01.804Z,102215.41
2023-05-03T02:46:24.585Z,102214.56
2023-05-03T02:46:46.286Z,102210.16
2023-05-03T02:47:10.919Z,102212.78
2023-05-03T02:47:35.274Z,102217.22
2023-05-03T02:47:59.071Z,102218.06
2023-05-03T02:48:21.703Z,102218.06
2023-05-03T02:48:43.348Z,102217.22
2023-05-03T02:49:05.021Z,102224.28
2023-05-03T02:49:29.125Z,102209.25
2023-05-03T02:49:51.030Z,102212.81
2023-05-03T02:50:12.698Z,102212.78
2023-05-03T02:50:35.692Z,102212.78
2023-05-03T02:50:58.266Z,102206.66
2023-05-03T02:51:20.569Z,102213.72
2023-05-03T02:51:42.178Z,102207.56
2023-05-03T02:52:03.906Z,102210.16
2023-05-03T02:52:26.469Z,102213.72
2023-05-03T02:52:48.035Z,102219.91
2023-05-03T02:53:09.757Z,102212.81
2023-05-03T02:53:31.983Z,102212.78
2023-05-03T02:53:57.944Z,102211.91
2023-05-03T02:54:19.653Z,102211.00
2023-05-03T02:54:41.339Z,102213.66
2023-05-03T02:55:06.854Z,102212.78
2023-05-03T02:55:30.318Z,102209.19
2023-05-03T02:55:52.050Z,102211.84
2023-05-03T02:56:15.101Z,102214.50
2023-05-03T02:56:36.787Z,102212.72
2023-05-03T02:56:59.439Z,102206.53
2023-05-03T02:57:21.012Z,102207.44
2023-05-03T02:57:43.025Z,102211.84
2023-05-03T02:58:07.546Z,102208.31
2023-05-03T02:58:29.178Z,102201.22
2023-05-03T02:58:51.969Z,102204.78
2023-05-03T02:59:14.775Z,102216.25
2023-05-03T02:59:37.376Z,102206.50
2023-05-03T02:59:59.118Z,102198.56
2023-05-03T03:00:21.573Z,102203.84
2023-05-03T03:00:43.216Z,102201.19
2023-05-03T03:01:06.541Z,102206.50
2023-05-03T03:01:28.897Z,102210.09
2023-05-03T03:01:51.119Z,102211.84
2023-05-03T03:02:12.836Z,102211.84
2023-05-03T03:02:35.613Z,102207.41
2023-05-03T03:02:57.440Z,102198.56
2023-05-03T03:03:19.247Z,102206.53
2023-05-03T03:03:41.257Z,102213.66
2023-05-03T03:04:03.841Z,102204.81
2023-05-03T03:04:26.840Z,102204.78
2023-05-03T03:04:48.709Z,102205.69
2023-05-03T03:05:10.439Z,102205.69
2023-05-03T03:05:33.357Z,102205.69
2023-05-03T03:05:56.216Z,102209.25
2023-05-03T03:06:18.467Z,102207.47
2023-05-03T03:06:40.335Z,102199.50
2023-05-03T03:07:01.969Z,102203.94
2023-05-03T03:07:25.673Z,102203.03
2023-05-03T03:07:51.202Z,102205.69
2023-05-03T03:08:12.894Z,102202.16
2023-05-03T03:08:35.971Z,102203.97
2023-05-03T03:08:59.587Z,102201.34
2023-05-03T03:09:21.247Z,102204.00
2023-05-03T03:09:42.856Z,102191.69
2023-05-03T03:10:06.046Z,102202.28
2023-05-03T03:10:27.738Z,102197.84
2023-05-03T03:10:49.732Z,102199.63
2023-05-03T03:11:11.859Z,102204.06
2023-05-03T03:11:35.817Z,102204.94
2023-05-03T03:11:57.492Z,102198.75
2023-05-03T03:12:19.178Z,102200.53
2023-05-03T03:12:41.384Z,102195.22
2023-05-03T03:13:07.280Z,102197.03
2023-05-03T03:13:32.878Z,102197.94
2023-05-03T03:13:55.684Z,102199.69
2023-05-03T03:14:20.033Z,102200.59
2023-05-03T03:14:45.510Z,102200.63
2023-05-03T03:15:08.532Z,102194.47
2023-05-03T03:15:30.481Z,102198.88
2023-05-03T03:15:52.179Z,102200.66
2023-05-03T03:16:14.955Z,102207.69
2023-05-03T03:16:36.630Z,102203.28
2023-05-03T03:16:58.442Z,102199.72
2023-05-03T03:17:20.744Z,102200.66
2023-05-03T03:17:43.393Z,102204.19
2023-05-03T03:18:06.042Z,102191.81
2023-05-03T03:18:27.730Z,102199.72
2023-05-03T03:18:49.382Z,102197.06
2023-05-03T03:19:12.184Z,102199.69
2023-05-03T03:19:33.785Z,102192.63
2023-05-03T03:19:58.172Z,102197.94
2023-05-03T03:20:20.436Z,102202.38
2023-05-03T03:20:44.160Z,102192.66
2023-05-03T03:21:05.950Z,102193.53
2023-05-03T03:21:29.670Z,102195.31
2023-05-03T03:21:51.802Z,102193.53
2023-05-03T03:22:14.390Z,102191.75
2023-05-03T03:22:36.149Z,102190.91
2023-05-03T03:22:57.758Z,102195.31
2023-05-03T03:23:19.392Z,102185.56
2023-05-03T03:23:41.968Z,102185.56
2023-05-03T03:24:04.009Z,102187.38
2023-05-03T03:24:26.636Z,102190.03
2023-05-03T03:24:48.565Z,102189.16
2023-05-03T03:25:11.213Z,102188.25
2023-05-03T03:25:34.046Z,102190.88
2023-05-03T03:25:55.814Z,102190.03
2023-05-03T03:26:17.462Z,102182.09
2023-05-03T03:26:41.579Z,102188.25
2023-05-03T03:27:03.648Z,102183.00
2023-05-03T03:27:25.854Z,102176.78
2023-05-03T03:27:47.662Z,102190.03
2023-05-03T03:28:10.299Z,102183.88
2023-05-03T03:28:32.403Z,102184.75
2023-05-03T03:28:56.594Z,102186.53
2023-05-03T03:29:18.323Z,102183.88
2023-05-03T03:29:40.256Z,102184.78
2023-05-03T03:30:03.484Z,102182.13
2023-05-03T03:30:29.741Z,102187.41
2023-05-03T03:31:03.762Z,102176.78
2023-05-03T03:31:26.727Z,102183.84
2023-05-03T03:31:50.884Z,102184.72
2023-05-03T03:32:13.895Z,102189.16
2023-05-03T03:32:35.803Z,102185.66
2023-05-03T03:33:00.723Z,102185.66
2023-05-03T03:33:29.165Z,102186.50
2023-05-03T03:33:57.471Z,102180.34
2023-05-03T03:34:23.371Z,102178.53
2023-05-03T03:34:45.357Z,102183.00
2023-05-03T03:35:08.564Z,102180.38
2023-05-03T03:35:30.912Z,102184.78
2023-05-03T03:35:53.509Z,102174.19
2023-05-03T03:36:19.359Z,102158.28
2023-05-03T03:36:43.000Z,102168.91
2023-05-03T03:37:05.336Z,102172.41
2023-05-03T03:37:27.658Z,102175.94
2023-05-03T03:37:50.350Z,102182.13
2023-05-03T03:38:12.312Z,102174.19
2023-05-03T03:38:41.803Z,102179.47
2023-05-03T03:39:05.997Z,102183.03
2023-05-03T03:39:30.375Z,102155.66
2023-05-03T03:39:52.029Z,102178.63
2023-05-03T03:40:13.893Z,102178.63
2023-05-03T03:40:35.846Z,102170.66
2023-05-03T03:40:58.459Z,102178.59
2023-05-03T03:41:23.022Z,102183.91
2023-05-03T03:41:46.863Z,102172.41
2023-05-03T03:42:10.716Z,102182.13
2023-05-03T03:42:33.542Z,102177.69
2023-05-03T03:42:55.278Z,102176.78
2023-05-03T03:43:16.901Z,102177.63
2023-05-03T03:43:38.889Z,102180.28
2023-05-03T03:44:06.520Z,102180.28
2023-05-03T03:44:28.165Z,102176.75
2023-05-03T03:44:49.937Z,102182.06
2023-05-03T03:45:11.656Z,102174.09
2023-05-03T03:45:34.242Z,102183.00
2023-05-03T03:45:56.015Z,102182.06
2023-05-03T03:46:17.989Z,102176.75
2023-05-03T03:46:41.295Z,102182.94
2023-05-03T03:47:04.526Z,102176.75
2023-05-03T03:47:26.877Z,102174.09
2023-05-03T03:47:49.254Z,102174.09
2023-05-03T03:48:11.685Z,102175.00
2023-05-03T03:48:34.402Z,102173.22
2023-05-03T03:48:56.016Z,102177.69
2023-05-03T03:49:20.739Z,102167.03
2023-05-03T03:49:42.621Z,102167.03
2023-05-03T03:50:05.457Z,102172.28
2023-05-03T03:50:29.484Z,102176.75
2023-05-03T03:50:52.111Z,102164.38
2023-05-03T03:51:16.539Z,102177.63
2023-05-03T03:51:42.852Z,102169.69
2023-05-03T03:52:05.035Z,102166.16
2023-05-03T03:52:27.284Z,102165.28
2023-05-03T03:52:49.183Z,102174.19
2023-05-03T03:53:12.530Z,102172.44
2023-05-03T03:53:36.001Z,102173.31
2023-05-03T03:53:57.968Z,102172.44
2023-05-03T03:54:23.344Z,102172.44
2023-05-03T03:54:46.697Z,102165.34
2023-05-03T03:55:08.831Z,102168.91
2023-05-03T03:55:31.275Z,102173.31
2023-05-03T03:55:53.009Z,102173.31
2023-05-03T03:56:15.897Z,102166.25
2023-05-03T03:56:37.891Z,102172.47
2023-05-03T03:57:02.667Z,102175.13
2023-05-03T03:57:29.655Z,102168.94
2023-05-03T03:57:51.486Z,102174.25
2023-05-03T03:58:13.313Z,102169.84
2023-05-03T03:58:35.828Z,102170.72
2023-05-03T03:58:58.698Z,102175.16
2023-05-03T03:59:22.048Z,102170.75
2023-05-03T03:59:44.316Z,102170.75
2023-05-03T04:00:11.608Z,102164.56
2023-05-03T04:00:42.724Z,102174.25
2023-05-03T04:01:09.034Z,102172.50
2023-05-03T04:01:31.442Z,102173.38
2023-05-03T04:01:53.178Z,102172.53
2023-05-03T04:02:15.848Z,102173.41
2023-05-03T04:02:37.789Z,102164.56
2023-05-03T04:03:01.060Z,102170.72
2023-05-03T04:03:23.877Z,102161.00
2023-05-03T04:03:46.307Z,102176.03
2023-05-03T04:04:09.040Z,102171.59
2023-05-03T04:04:32.443Z,102175.13
2023-05-03T04:04:54.084Z,102157.50
2023-05-03T04:05:17.267Z,102167.19
2023-05-03T04:05:40.848Z,102171.59
2023-05-03T04:06:04.088Z,102172.47
2023-05-03T04:06:27.020Z,102168.97
2023-05-03T04:06:50.262Z,102160.16
2023-05-03T04:07:12.660Z,102165.44
2023-05-03T04:07:34.334Z,102175.22
2023-05-03T04:07:57.795Z,102162.78
2023-05-03T04:08:25.031Z,102165.44
2023-05-03T04:08:46.713Z,102163.72
2023-05-03T04:09:10.378Z,102171.66
2023-05-03T04:09:33.086Z,102163.72
2023-05-03T04:09:56.483Z,102163.69
2023-05-03T04:10:19.307Z,102161.91
2023-05-03T04:10:40.939Z,102161.00
2023-05-03T04:11:03.966Z,102166.34
2023-05-03T04:11:30.137Z,102163.69
2023-05-03T04:11:54.785Z,102158.38
2023-05-03T04:12:18.015Z,102161.88
2023-05-03T04:12:41.306Z,102165.44
2023-05-03T04:13:03.176Z,102174.25
2023-05-03T04:13:24.832Z,102163.66
2023-05-03T04:13:48.250Z,102162.81
2023-05-03T04:14:11.362Z,102165.44
2023-05-03T04:14:33.891Z,102156.66
2023-05-03T04:14:57.068Z,102169.00
2023-05-03T04:15:18.923Z,102169.00
2023-05-03T04:15:42.522Z,102161.00
2023-05-03T04:16:04.985Z,102167.19
2023-05-03T04:16:27.203Z,102167.22
2023-05-03T04:16:49.420Z,102173.38
2023-05-03T04:17:11.244Z,102135.44
2023-05-03T04:17:34.983Z,102159.19
2023-05-03T04:18:00.034Z,102163.66
2023-05-03T04:18:22.163Z,102162.81
2023-05-03T04:18:44.605Z,102156.59
2023-05-03T04:19:07.253Z,102161.91
2023-05-03T04:19:33.058Z,102154.84
2023-05-03T04:19:54.946Z,102150.44
2023-05-03T04:20:17.968Z,102156.59
2023-05-03T04:20:44.135Z,102150.44
2023-05-03T04:21:06.018Z,102153.97
2023-05-03T04:21:28.263Z,102146.91
2023-05-03T04:21:50.046Z,102147.78
2023-05-03T04:22:14.514Z,102153.13
2023-05-03T04:22:36.623Z,102156.66
2023-05-03T04:22:58.635Z,102152.25
2023-05-03T04:23:23.525Z,102151.34
2023-05-03T04:23:45.250Z,102151.38
2023-05-03T04:24:10.440Z,102151.34
2023-05-03T04:24:32.011Z,102154.91
2023-05-03T04:24:54.718Z,102139.91
2023-05-03T04:25:17.098Z,102146.94
2023-05-03T04:25:46.778Z,102145.19
2023-05-03T04:26:17.221Z,102151.34
2023-05-03T04:26:51.341Z,102139.91
2023-05-03T04:27:21.981Z,102140.78
2023-05-03T04:27:44.210Z,102145.19